Gangstad — LIZV — position and weather

sailwx.info

Track history (hours):
 
Tides and Currents Weather Stations Pressure Air Temp Water Temp Dewpoint Dewpoint Depression Visibility Wind Speed Wind Dir Waves Ship Positions

Gangstad

Last reported at 2014-Jan-18 08:33 UTC. Time now 2014-Jul-23 15:37 UTC.
Position N 56°55' E 017°29'.
Warning: this ship's position is months out of date.

Length 29 m; draft 5.6 m.

Type: Fishing. MMSI: 259467000.

Date/timePositionNaut miles runAvg speedWind from/ knotsBaromVisibWave heightAir tempDewpointWater temp
2014-Jan-18 08:33N 56°55' E 017°29'8 8.4
2014-Jan-18 07:32N 56°47' E 017°23'101 7.2
2014-Jan-17 17:30N 55°34' E 015°17'4 3.9
2014-Jan-17 16:33N 55°32' E 015°11'7 6.6
2014-Jan-17 15:34N 55°29' E 015°01'7 7.3
2014-Jan-17 14:33N 55°26' E 014°50'7 7.4
2014-Jan-17 13:34N 55°22' E 014°38'8 7.7
2014-Jan-17 12:33N 55°18' E 014°27'8 7.8
2014-Jan-17 11:33N 55°13' E 014°16'8 7.8
2014-Jan-17 10:33N 55°13' E 014°02'15 7.3
2014-Jan-17 08:33N 55°13' E 013°37'7 6.8
2014-Jan-17 07:33N 55°13' E 013°25'7 6.7
2014-Jan-17 06:33N 55°13' E 013°13'7 6.7
2014-Jan-17 05:33N 55°13' E 013°01'6 6.3
2014-Jan-17 04:33N 55°15' E 012°51'6 6.3
2014-Jan-17 03:33N 55°17' E 012°41'6 6.0
2014-Jan-17 02:33N 55°23' E 012°39'8 7.5
2014-Jan-17 01:33N 55°30' E 012°42'7 6.8
2014-Jan-17 00:33N 55°37' E 012°42'7 6.6
2014-Jan-16 23:33N 55°44' E 012°41'7 6.8
2014-Jan-16 22:33N 55°50' E 012°40'7 7.3
2014-Jan-16 21:33N 55°58' E 012°38'6 6.3
2014-Jan-16 20:33N 56°04' E 012°37'5 5.1
2014-Jan-16 19:33N 56°07' E 012°30'6 5.6
2014-Jan-16 18:34N 56°10' E 012°21'7 7.0
2014-Jan-16 17:33N 56°14' E 012°11'  
Track history (hours):
 
Tides and Currents Weather Stations Pressure Air Temp Water Temp Dewpoint Dewpoint Depression Visibility Wind Speed Wind Dir Waves Ship Positions

Gangstad

Last reported at 2014-Jan-18 08:33 UTC. Time now 2014-Jul-23 15:37 UTC.
Position N 56°55' E 017°29'.
Warning: this ship's position is months out of date.

Length 29 m; draft 5.6 m.

Type: Fishing. MMSI: 259467000.

Date/timePositionNaut miles runAvg speedWind from/ knotsBaromVisibWave heightAir tempDewpointWater temp
2014-Jan-18 08:33N 56°55' E 017°29'8 8.4
2014-Jan-18 07:32N 56°47' E 017°23'101 7.2
2014-Jan-17 17:30N 55°34' E 015°17'4 3.9
2014-Jan-17 16:33N 55°32' E 015°11'7 6.6
2014-Jan-17 15:34N 55°29' E 015°01'7 7.3
2014-Jan-17 14:33N 55°26' E 014°50'7 7.4
2014-Jan-17 13:34N 55°22' E 014°38'8 7.7
2014-Jan-17 12:33N 55°18' E 014°27'8 7.8
2014-Jan-17 11:33N 55°13' E 014°16'8 7.8
2014-Jan-17 10:33N 55°13' E 014°02'15 7.3
2014-Jan-17 08:33N 55°13' E 013°37'7 6.8
2014-Jan-17 07:33N 55°13' E 013°25'7 6.7
2014-Jan-17 06:33N 55°13' E 013°13'7 6.7
2014-Jan-17 05:33N 55°13' E 013°01'6 6.3
2014-Jan-17 04:33N 55°15' E 012°51'6 6.3
2014-Jan-17 03:33N 55°17' E 012°41'6 6.0
2014-Jan-17 02:33N 55°23' E 012°39'8 7.5
2014-Jan-17 01:33N 55°30' E 012°42'7 6.8
2014-Jan-17 00:33N 55°37' E 012°42'7 6.6
2014-Jan-16 23:33N 55°44' E 012°41'7 6.8
2014-Jan-16 22:33N 55°50' E 012°40'7 7.3
2014-Jan-16 21:33N 55°58' E 012°38'6 6.3
2014-Jan-16 20:33N 56°04' E 012°37'5 5.1
2014-Jan-16 19:33N 56°07' E 012°30'6 5.6
2014-Jan-16 18:34N 56°10' E 012°21'7 7.0
2014-Jan-16 17:33N 56°14' E 012°11'  

Dump ship's entire track history